Time;durP1;ratioP1;P1;durP2;ratioP2;P2;SDS_P1;SDS_P2;PMS_P1;PMS_P2;Temp;Humidity;BMP_temperature;BMP_pressure;BME280_temperature;BME280_humidity;BME280_pressure;Samples;Min_cycle;Max_cycle;Signal;HPM_P1;HPM_P2
2022/10/05 00:01:00;;;;;;;7.75;5.88;;;12.40;99.90;;;15.36;57.56;98124.41;5023752;28;20245;-52
2022/10/05 00:03:37;;;;;;;8.48;5.30;;;12.40;99.90;;;15.35;57.63;98125.44;5023826;28;20225;-50
2022/10/05 00:06:08;;;;;;;6.38;5.13;;;12.30;99.90;;;15.34;57.53;98121.06;5024151;28;20049;-48
2022/10/05 00:08:36;;;;;;;9.02;6.32;;;12.30;99.90;;;15.37;57.64;98122.53;5024228;28;20058;-50
2022/10/05 00:11:08;;;;;;;8.32;6.40;;;12.40;99.90;;;15.39;57.60;98115.16;5025485;28;20050;-48
2022/10/05 00:13:36;;;;;;;6.72;5.05;;;12.40;99.90;;;15.41;57.59;98112.28;5024599;28;20044;-47
2022/10/05 00:16:07;;;;;;;9.68;6.18;;;12.40;99.90;;;15.42;57.65;98114.81;5025186;28;20050;-50
2022/10/05 00:18:35;;;;;;;9.10;6.40;;;12.40;99.90;;;15.40;57.59;98113.31;5023138;28;20042;-49
2022/10/05 00:21:23;;;;;;;8.32;5.65;;;12.40;99.90;;;15.41;57.71;98109.59;5023529;28;20248;-49
2022/10/05 00:23:55;;;;;;;9.40;5.28;;;12.40;99.90;;;15.41;57.66;98096.19;5024244;28;20063;-50
2022/10/05 00:26:26;;;;;;;7.50;5.97;;;12.40;99.90;;;15.39;57.83;98107.09;5023324;28;20052;-48
2022/10/05 00:28:54;;;;;;;15.60;4.75;;;12.40;99.90;;;15.39;57.85;98109.78;5023244;28;20051;-49
2022/10/05 00:31:31;;;;;;;7.57;4.63;;;12.40;99.90;;;15.38;57.99;98101.94;5023297;28;20050;-48
2022/10/05 00:33:59;;;;;;;6.00;4.85;;;12.40;99.90;;;15.35;57.91;98098.59;5024237;28;20049;-50
2022/10/05 00:36:27;;;;;;;8.10;5.22;;;12.40;99.90;;;15.36;57.94;98107.47;5023773;28;20231;-49
2022/10/05 00:38:55;;;;;;;6.80;5.45;;;12.40;99.90;;;15.34;58.06;98098.78;5021701;28;20056;-53
2022/10/05 00:41:37;;;;;;;7.35;4.47;;;12.30;99.90;;;15.30;58.23;98097.47;5023798;28;20396;-48
2022/10/05 00:44:49;;;;;;;6.88;5.00;;;12.30;99.90;;;15.28;58.05;98096.81;5024285;28;20056;-48
2022/10/05 00:47:40;;;;;;;6.75;4.35;;;12.30;99.90;;;15.29;57.97;98096.63;5009314;28;20054;-49
2022/10/05 00:50:55;;;;;;;6.13;4.60;;;12.30;99.90;;;15.31;57.92;98099.13;5039843;28;20050;-49
2022/10/05 00:53:38;;;;;;;;;;;12.30;99.90;;;15.38;57.44;98102.75;5019705;28;20042;-47
2022/10/05 00:57:02;;;;;;;6.70;4.78;;;12.30;99.90;;;15.30;57.48;98105.53;5023081;28;19917;-53
2022/10/05 00:59:48;;;;;;;7.68;5.05;;;12.20;99.90;;;15.31;57.73;98101.81;5041663;28;20391;-49
2022/10/05 01:02:38;;;;;;;7.32;4.38;;;12.20;99.90;;;15.30;57.69;98109.03;5023741;28;20052;-51
2022/10/05 01:05:34;;;;;;;7.13;4.57;;;12.30;99.90;;;15.28;57.77;98108.38;5023682;28;20225;-49
2022/10/05 01:08:36;;;;;;;7.65;6.05;;;12.30;99.90;;;15.27;57.81;98098.66;5023233;28;20344;-51
2022/10/05 01:11:19;;;;;;;5.50;4.63;;;12.30;99.90;;;15.34;57.86;98106.81;5023530;28;20052;-49
2022/10/05 01:14:10;;;;;;;6.35;4.32;;;12.30;99.90;;;15.37;57.59;98103.75;5023517;28;20052;-48
2022/10/05 01:16:47;;;;;;;5.28;4.07;;;12.40;99.90;;;15.37;58.21;98106.44;5023509;28;20048;-51
2022/10/05 01:19:53;;;;;;;5.90;4.75;;;12.40;99.90;;;15.31;58.12;98101.81;5023449;28;20048;-52
2022/10/05 01:22:33;;;;;;;6.07;4.10;;;12.50;99.90;;;15.34;58.33;98101.47;5024386;28;20064;-51
2022/10/05 01:25:11;;;;;;;5.68;4.40;;;12.50;99.90;;;15.35;58.31;98106.66;5023240;28;20046;-50
2022/10/05 01:28:02;;;;;;;4.72;3.97;;;12.60;99.90;;;15.39;58.12;98098.22;5022109;28;20324;-49
2022/10/05 01:30:41;;;;;;;7.53;5.05;;;12.60;99.90;;;15.42;58.19;98095.19;5022128;28;20046;-52
2022/10/05 01:33:45;;;;;;;6.05;5.00;;;12.60;99.90;;;15.44;58.14;98087.78;5021722;28;20042;-51
2022/10/05 01:36:39;;;;;;;5.05;4.13;;;12.60;99.90;;;15.47;57.85;98082.91;5022017;28;20053;-47
2022/10/05 01:39:42;;;;;;;5.60;4.38;;;12.60;99.90;;;15.44;57.58;98079.75;5022670;28;20050;-48
2022/10/05 01:42:26;;;;;;;6.75;3.97;;;12.50;99.90;;;15.47;57.53;98082.06;5021490;28;20045;-50
2022/10/05 01:45:09;;;;;;;5.18;4.03;;;12.50;99.90;;;15.43;57.51;98075.38;5022335;28;20049;-48
2022/10/05 01:47:48;;;;;;;5.43;4.38;;;12.40;99.90;;;15.40;57.79;98078.44;5021740;28;20053;-49
2022/10/05 01:50:21;;;;;;;6.35;4.15;;;12.40;99.90;;;15.37;57.75;98079.63;5022936;28;20244;-48
2022/10/05 01:53:25;;;;;;;5.65;4.43;;;12.40;99.90;;;15.39;57.76;98077.59;5004917;28;20058;-49
2022/10/05 01:56:37;;;;;;;6.65;4.78;;;12.40;99.90;;;15.36;57.79;98070.75;5037193;28;20046;-53
2022/10/05 01:59:18;;;;;;;6.63;4.00;;;12.40;99.90;;;15.38;57.55;98073.25;5023520;28;20049;-52
2022/10/05 02:02:12;;;;;;;5.03;4.00;;;12.40;99.90;;;15.38;57.77;98073.25;5021799;28;20037;-48
2022/10/05 02:05:07;;;;;;;5.68;4.47;;;12.40;99.90;;;15.43;57.36;98064.66;5024570;28;20068;-50
2022/10/05 02:07:48;;;;;;;6.47;4.53;;;12.40;99.90;;;15.41;57.08;98069.38;5021255;28;20049;-52
2022/10/05 02:10:27;;;;;;;5.55;4.30;;;12.40;99.90;;;15.38;57.55;98059.84;5005986;28;20050;-49
2022/10/05 02:13:16;;;;;;;6.07;4.43;;;12.40;99.90;;;15.37;57.36;98060.84;5021718;28;20054;-52
2022/10/05 02:15:59;;;;;;;5.22;4.50;;;12.30;99.90;;;15.34;57.27;98062.06;5021905;28;20049;-50
2022/10/05 02:18:40;;;;;;;4.72;3.95;;;12.30;99.90;;;15.32;57.42;98058.72;5021118;28;20060;-53
2022/10/05 02:21:09;;;;;;;6.05;4.28;;;12.30;99.90;;;15.26;57.62;98059.44;5006335;28;20049;-52
2022/10/05 02:23:40;;;;;;;4.38;3.65;;;12.20;99.90;;;15.23;57.41;98054.44;5005534;28;20050;-48
2022/10/05 02:26:10;;;;;;;4.63;4.07;;;12.20;99.90;;;15.21;57.54;98056.47;5021388;28;20072;-50
2022/10/05 02:28:52;;;;;;;6.22;4.30;;;12.20;99.90;;;15.22;57.51;98046.56;5020608;28;20061;-50
2022/10/05 02:31:54;;;;;;;4.93;3.72;;;12.20;99.90;;;15.18;57.45;98051.47;5006153;28;20049;-48
2022/10/05 02:34:32;;;;;;;4.72;3.90;;;12.20;99.90;;;15.18;57.75;98051.47;5020248;28;20046;-52
2022/10/05 02:37:36;;;;;;;5.25;3.90;;;12.20;99.90;;;15.17;57.59;98060.53;5026830;28;20054;-50
2022/10/05 02:40:18;;;;;;;6.10;3.83;;;12.10;99.90;;;15.20;57.66;98072.72;5006532;28;20052;-50
2022/10/05 02:43:11;;;;;;;5.50;3.65;;;12.20;99.90;;;15.20;57.44;98075.41;5021278;28;20052;-53
2022/10/05 02:45:53;;;;;;;5.28;4.30;;;12.20;99.90;;;15.09;57.41;98080.19;5038174;28;20052;-47
2022/10/05 02:48:47;;;;;;;6.28;4.25;;;12.00;99.90;;;14.84;58.06;98082.22;5021926;28;20052;-51
2022/10/05 02:51:45;;;;;;;6.40;4.45;;;11.80;99.90;;;14.73;58.31;98082.63;5020944;28;20116;-50
2022/10/05 02:54:38;;;;;;;8.15;5.90;;;11.70;99.90;;;14.60;58.71;98088.56;5020088;28;20064;-50
2022/10/05 02:57:27;;;;;;;6.57;4.95;;;11.70;99.90;;;14.56;58.66;98088.09;5020569;28;20232;-49
2022/10/05 03:00:14;;;;;;;7.93;5.25;;;11.60;99.90;;;14.45;58.85;98088.44;5021257;28;20054;-48
2022/10/05 03:03:05;;;;;;;5.97;4.87;;;11.50;99.90;;;14.39;59.21;98078.44;5022560;28;20362;-49
2022/10/05 03:06:01;;;;;;;6.85;4.95;;;11.40;99.90;;;14.37;58.88;98080.44;5020821;28;20045;-50
2022/10/05 03:09:01;;;;;;;6.90;5.10;;;11.40;99.90;;;14.43;58.60;98070.88;5020365;28;20352;-47
2022/10/05 03:11:42;;;;;;;5.72;4.45;;;11.40;99.90;;;14.49;58.44;98071.00;5021985;28;20364;-48
2022/10/05 03:14:45;;;;;;;6.80;4.85;;;11.40;99.90;;;14.50;58.31;98063.78;5021993;28;20045;-49
2022/10/05 03:17:23;;;;;;;6.18;4.78;;;11.40;99.90;;;14.54;58.01;98073.16;5020357;28;20052;-49
2022/10/05 03:20:17;;;;;;;6.03;4.93;;;11.50;99.90;;;14.53;57.85;98066.97;5005417;28;20060;-51
2022/10/05 03:22:57;;;;;;;6.57;4.78;;;11.40;99.90;;;14.50;57.94;98056.59;5021196;28;20050;-49
2022/10/05 03:25:50;;;;;;;5.95;4.65;;;11.40;99.90;;;14.46;57.85;98052.63;5020363;28;20049;-47
2022/10/05 03:28:29;;;;;;;8.10;5.20;;;11.30;99.90;;;14.47;57.59;98051.59;5021458;28;20075;-51
2022/10/05 03:31:13;;;;;;;6.90;5.40;;;11.30;99.90;;;14.43;57.43;98042.25;5020713;28;20054;-51
2022/10/05 03:33:47;;;;;;;6.35;5.25;;;11.30;99.90;;;14.41;57.39;98040.75;5020957;28;20340;-51
2022/10/05 03:36:49;;;;;;;6.93;4.88;;;11.30;99.90;;;14.40;57.71;98037.22;5021081;28;20056;-47
2022/10/05 03:39:27;;;;;;;6.07;5.00;;;11.30;99.90;;;14.41;57.83;98030.88;5009922;28;20056;-46
2022/10/05 03:42:31;;;;;;;6.63;4.73;;;11.30;99.90;;;14.42;57.96;98029.03;5021820;28;20058;-50
2022/10/05 03:45:32;;;;;;;6.00;4.93;;;11.40;99.90;;;14.43;57.59;98022.66;5010217;28;20059;-49
2022/10/05 03:48:13;;;;;;;7.03;5.03;;;11.40;99.90;;;14.45;57.92;98023.31;5008778;28;20076;-51
2022/10/05 03:51:05;;;;;;;8.30;4.93;;;11.40;99.90;;;14.43;58.05;98014.63;5023646;28;20080;-47
2022/10/05 03:54:06;;;;;;;7.50;5.22;;;11.40;99.90;;;14.41;57.95;98025.50;5022898;28;20057;-49
2022/10/05 03:56:44;;;;;;;6.38;4.85;;;11.40;99.90;;;14.41;58.11;98028.19;5024674;28;20166;-48
2022/10/05 03:59:28;;;;;;;12.07;6.17;;;11.40;99.90;;;14.41;58.11;98030.03;5040650;28;20050;-50
2022/10/05 04:02:24;;;;;;;5.43;4.50;;;11.40;99.90;;;14.44;58.26;98025.16;5009052;28;20056;-47
2022/10/05 04:05:16;;;;;;;8.03;4.47;;;11.40;99.90;;;14.45;58.19;98012.59;5023529;28;20056;-47
2022/10/05 04:08:07;;;;;;;6.10;3.88;;;11.40;99.90;;;14.46;58.36;98016.94;5024242;28;20060;-46
2022/10/05 04:10:53;;;;;;;5.27;4.30;;;11.50;99.90;;;14.49;58.57;98021.94;5023508;28;20209;-48
2022/10/05 04:14:01;;;;;;;7.78;4.97;;;11.50;99.90;;;14.53;58.44;98023.25;5024100;28;20056;-49
2022/10/05 04:16:46;;;;;;;9.27;5.15;;;11.60;99.90;;;14.51;58.27;98023.44;5026771;28;20340;-51
2022/10/05 04:19:25;;;;;;;7.17;4.87;;;11.50;99.90;;;14.50;58.29;98015.56;5008592;28;20046;-46
2022/10/05 04:22:14;;;;;;;9.82;5.22;;;11.40;99.90;;;14.48;58.04;98012.22;5007559;28;20061;-49
2022/10/05 04:24:55;;;;;;;8.70;5.20;;;11.40;99.90;;;14.46;58.18;98012.44;5023216;28;20053;-48
2022/10/05 04:27:47;;;;;;;5.60;4.10;;;11.40;99.90;;;14.45;58.10;98015.28;5007088;28;20060;-46
2022/10/05 04:30:18;;;;;;;6.83;4.90;;;11.40;99.90;;;14.46;58.20;98011.56;5023427;28;20050;-47
2022/10/05 04:32:58;;;;;;;6.55;4.70;;;11.40;99.90;;;14.46;58.06;98012.44;5007131;28;20247;-47
2022/10/05 04:36:03;;;;;;;9.27;5.43;;;11.40;99.90;;;14.43;57.74;98014.63;5023519;28;20059;-46
2022/10/05 04:39:00;;;;;;;6.13;4.75;;;11.40;99.90;;;14.39;57.96;98014.16;5023137;28;20049;-46
2022/10/05 04:41:47;;;;;;;7.90;4.93;;;11.30;99.90;;;14.38;57.79;98023.16;5009165;28;20063;-47
2022/10/05 04:44:26;;;;;;;;;;;11.30;99.90;;;14.42;57.59;98031.69;5024547;28;20068;-47
2022/10/05 04:47:15;;;;;;;7.43;4.85;;;11.30;99.90;;;14.29;57.79;98030.44;5022408;28;19917;-49
2022/10/05 04:50:00;;;;;;;7.70;5.23;;;11.10;99.90;;;14.24;57.66;98045.34;5023081;28;20049;-49
2022/10/05 04:53:09;;;;;;;6.82;5.28;;;11.10;99.90;;;14.21;57.89;98043.88;5023509;28;20050;-45
2022/10/05 04:56:11;;;;;;;8.77;5.57;;;11.10;99.90;;;14.20;57.89;98054.75;5023766;28;20044;-47
2022/10/05 04:59:16;;;;;;;8.73;5.83;;;11.20;99.90;;;14.15;57.69;98053.44;5008367;28;20058;-46
2022/10/05 05:02:02;;;;;;;8.10;5.43;;;11.10;99.90;;;14.11;57.65;98046.75;5022453;28;20056;-49
2022/10/05 05:05:04;;;;;;;10.97;6.30;;;11.00;99.90;;;14.08;57.63;98054.31;5022818;28;20061;-48
2022/10/05 05:07:52;;;;;;;12.00;6.47;;;11.00;99.90;;;14.05;57.69;98054.63;5022161;28;20059;-47
2022/10/05 05:10:50;;;;;;;13.53;11.77;;;10.90;99.90;;;13.99;57.72;98056.16;5008213;28;20362;-48
2022/10/05 05:14:03;;;;;;;17.27;11.93;;;10.80;99.90;;;13.91;57.43;98061.53;5022041;28;20057;-47
2022/10/05 05:16:51;;;;;;;27.40;15.33;;;10.70;99.90;;;13.82;57.13;98051.88;5017638;28;20072;-51
2022/10/05 05:19:34;;;;;;;13.03;8.97;;;10.50;99.90;;;13.73;57.14;98054.56;5007522;28;20049;-48
2022/10/05 05:22:32;;;;;;;9.87;6.33;;;10.40;99.90;;;13.61;57.14;98060.44;5022422;28;20264;-47
2022/10/05 05:25:37;;;;;;;9.80;7.17;;;10.30;99.90;;;13.50;57.10;98056.28;5022119;28;20056;-48
2022/10/05 05:28:50;;;;;;;9.70;6.40;;;10.20;99.90;;;13.41;57.44;98068.00;5008268;28;20362;-49
2022/10/05 05:32:05;;;;;;;7.73;6.30;;;10.20;99.90;;;13.37;57.35;98070.19;5008241;28;20045;-49
2022/10/05 05:35:06;;;;;;;7.50;5.50;;;10.10;99.90;;;13.32;57.56;98076.03;5006613;28;20239;-49
2022/10/05 05:38:19;;;;;;;7.13;5.53;;;10.10;99.90;;;13.30;57.68;98085.22;5021751;28;20053;-48
2022/10/05 05:41:15;;;;;;;11.13;7.07;;;10.10;99.90;;;13.29;57.61;98078.19;5025790;28;20053;-47
2022/10/05 05:44:18;;;;;;;7.33;5.97;;;10.10;99.90;;;13.26;57.71;98078.50;5023435;28;20054;-51
2022/10/05 05:47:17;;;;;;;9.70;6.10;;;10.10;99.90;;;13.28;58.02;98084.50;5021414;28;20050;-51
2022/10/05 05:50:06;;;;;;;6.67;5.13;;;10.10;99.90;;;13.31;58.30;98089.56;5021732;28;20060;-48
2022/10/05 05:52:50;;;;;;;8.07;5.67;;;10.20;99.90;;;13.32;58.25;98085.91;5021755;28;20052;-51
2022/10/05 05:55:34;;;;;;;7.70;6.30;;;10.20;99.90;;;13.35;58.36;98085.56;5022394;28;20072;-48
2022/10/05 05:58:18;;;;;;;15.30;11.07;;;10.20;99.90;;;13.37;58.17;98079.03;5005643;28;20348;-49
2022/10/05 06:01:09;;;;;;;8.00;5.82;;;10.20;99.90;;;13.40;58.19;98085.91;5038117;28;20049;-53
2022/10/05 06:04:24;;;;;;;10.67;8.33;;;10.30;99.90;;;13.43;58.18;98090.06;5008267;28;20054;-52
2022/10/05 06:06:56;;;;;;;15.30;10.87;;;10.30;99.90;;;13.46;58.28;98090.56;5020823;28;20358;-52
2022/10/05 06:09:44;;;;;;;11.50;8.73;;;10.30;99.90;;;13.49;58.36;98081.34;5021843;28;20052;-50
2022/10/05 06:12:40;;;;;;;11.90;8.50;;;10.40;99.90;;;13.53;58.38;98080.88;5021624;28;20050;-53
2022/10/05 06:15:33;;;;;;;9.37;7.23;;;10.50;99.90;;;13.56;58.27;98080.50;5021312;28;20052;-49
2022/10/05 06:18:13;;;;;;;10.18;7.15;;;10.50;99.90;;;13.65;58.69;98097.41;5005267;28;20050;-54
2022/10/05 06:21:10;;;;;;;12.53;7.37;;;10.60;99.90;;;13.71;58.53;98098.56;5022637;28;20243;-48
2022/10/05 06:23:49;;;;;;;9.37;5.73;;;10.70;99.90;;;13.77;58.75;98100.56;5022455;28;20045;-53
2022/10/05 06:26:23;;;;;;;9.60;6.47;;;10.80;99.90;;;13.81;58.69;98106.41;5021426;28;20046;-51
2022/10/05 06:29:02;;;;;;;7.70;6.10;;;10.80;99.90;;;13.88;58.91;98110.06;5021247;28;20053;-51
2022/10/05 06:31:51;;;;;;;9.43;6.40;;;10.90;99.90;;;13.94;58.50;98117.41;5022011;28;20088;-52
2022/10/05 06:34:47;;;;;;;7.20;5.77;;;10.90;99.90;;;14.02;58.74;98121.91;5023128;28;20054;-50
2022/10/05 06:37:55;;;;;;;9.30;6.13;;;11.00;99.90;;;14.07;58.75;98131.06;5020897;28;20053;-53
2022/10/05 06:40:54;;;;;;;7.87;4.17;;;11.20;99.90;;;14.16;58.77;98134.59;5020984;28;20050;-48
2022/10/05 06:43:40;;;;;;;7.37;4.80;;;11.20;99.90;;;14.22;58.70;98128.53;5020508;28;20374;-50
2022/10/05 06:46:54;;;;;;;5.55;4.50;;;11.30;99.90;;;14.29;58.73;98134.88;5021310;28;20182;-52
2022/10/05 06:49:59;;;;;;;;;;;11.40;99.90;;;14.44;58.21;98129.59;5021867;28;20054;-47
2022/10/05 06:53:17;;;;;;;7.57;4.20;;;11.40;99.90;;;14.45;58.40;98139.34;5020487;28;19924;-52
2022/10/05 06:56:53;;;;;;;7.43;4.47;;;11.50;99.90;;;14.45;58.52;98141.19;5006461;28;20046;-52
2022/10/05 07:00:00;;;;;;;8.00;3.92;;;11.50;99.90;;;14.54;58.72;98135.63;5023541;28;20056;-52
2022/10/05 07:02:51;;;;;;;7.60;5.07;;;11.60;99.90;;;14.61;58.72;98141.13;5020905;28;20045;-50
2022/10/05 07:05:59;;;;;;;7.07;5.20;;;11.70;99.90;;;14.67;58.80;98140.44;5022218;28;20252;-51
2022/10/05 07:08:45;;;;;;;5.97;5.10;;;11.80;99.90;;;14.74;58.72;98143.25;5023499;28;20056;-50
2022/10/05 07:11:49;;;;;;;5.10;4.00;;;11.90;99.90;;;14.79;58.93;98138.19;5020833;28;20054;-50
2022/10/05 07:15:21;;;;;;;5.97;4.47;;;12.00;99.90;;;14.86;58.85;98146.38;5037059;28;20053;-51
2022/10/05 07:18:21;;;;;;;5.45;4.72;;;12.10;99.90;;;14.96;58.53;98145.13;5023742;28;20049;-50
2022/10/05 07:21:14;;;;;;;5.07;4.00;;;12.10;99.90;;;15.00;58.56;98148.28;5024816;28;20050;-51
2022/10/05 07:24:31;;;;;;;4.65;3.70;;;12.20;99.90;;;15.05;58.69;98147.78;5024323;28;20049;-50
2022/10/05 07:27:21;;;;;;;5.65;4.00;;;12.20;99.90;;;15.10;58.08;98156.97;5040727;28;20050;-49
2022/10/05 07:30:11;;;;;;;7.22;4.68;;;12.30;99.90;;;15.13;58.63;98143.19;5009037;28;20058;-50
2022/10/05 07:33:11;;;;;;;5.63;4.00;;;12.30;99.90;;;15.19;58.61;98154.22;4993621;28;20060;-49
2022/10/05 07:39:02;;;;;;;4.57;3.80;;;12.40;99.90;;;15.29;58.75;98154.81;5024282;28;20046;-52
2022/10/05 07:41:46;;;;;;;5.13;3.83;;;12.40;99.90;;;15.31;58.49;98161.66;5025254;28;20348;-48
2022/10/05 07:44:44;;;;;;;5.68;4.45;;;12.50;99.90;;;15.36;58.46;98155.78;5023691;28;20054;-49
2022/10/05 07:47:36;;;;;;;5.80;3.83;;;12.50;99.90;;;15.40;58.48;98162.44;5010760;28;20065;-51
2022/10/05 07:50:42;;;;;;;7.30;4.82;;;12.50;99.90;;;15.42;58.44;98151.53;5040942;28;20058;-48
2022/10/05 07:53:24;;;;;;;11.90;5.68;;;12.60;99.90;;;15.48;58.98;98156.19;5024036;28;20049;-53
2022/10/05 07:56:03;;;;;;;29.23;10.10;;;12.60;99.90;;;15.51;58.88;98158.50;5008960;28;20344;-52
2022/10/05 07:58:42;;;;;;;26.52;9.45;;;12.60;99.90;;;15.53;59.01;98161.84;5024157;28;20050;-50
2022/10/05 08:01:28;;;;;;;28.80;8.98;;;12.60;99.90;;;15.55;59.13;98168.69;5023758;28;20281;-50
2022/10/05 08:04:25;;;;;;;27.08;9.05;;;12.60;99.90;;;15.59;58.95;98155.75;5009798;28;20049;-51
2022/10/05 08:07:06;;;;;;;;;;;12.70;99.90;;;15.71;58.77;98167.72;5023891;28;20060;-49
2022/10/05 08:09:55;;;;;;;16.27;6.30;;;12.70;99.90;;;15.72;58.79;98163.19;5024129;28;19924;-52
2022/10/05 08:12:29;;;;;;;17.42;6.70;;;12.80;99.90;;;15.70;59.08;98163.38;5024760;28;20052;-50
2022/10/05 08:15:16;;;;;;;14.50;6.00;;;12.80;99.90;;;15.74;59.20;98155.81;5024532;28;20056;-52
2022/10/05 08:17:53;;;;;;;16.67;8.10;;;12.90;99.90;;;15.78;59.40;98159.81;5024193;28;20048;-48
2022/10/05 08:20:47;;;;;;;19.63;6.40;;;12.90;99.90;;;15.84;59.20;98160.91;5024674;28;20046;-52
2022/10/05 08:23:21;;;;;;;9.73;5.75;;;13.00;99.90;;;15.92;59.38;98158.19;5024540;28;20121;-54
2022/10/05 08:26:05;;;;;;;8.20;5.43;;;13.10;99.90;;;15.94;59.48;98154.28;5024612;28;20054;-51
2022/10/05 08:28:52;;;;;;;15.68;5.63;;;13.10;99.90;;;16.02;59.65;98150.69;5022697;28;20064;-52
2022/10/05 08:31:28;;;;;;;10.43;6.65;;;13.30;99.90;;;16.05;59.63;98154.84;5024334;28;20050;-50
2022/10/05 08:34:22;;;;;;;10.82;5.80;;;13.30;99.90;;;16.10;59.27;98150.59;5023563;28;20054;-52
2022/10/05 08:37:05;;;;;;;9.67;6.43;;;13.40;99.90;;;16.19;59.44;98147.81;5023888;28;20045;-52
2022/10/05 08:39:52;;;;;;;11.10;6.03;;;13.40;99.90;;;16.24;59.35;98148.09;5024663;28;20049;-50
2022/10/05 08:43:03;;;;;;;9.20;6.07;;;13.50;99.90;;;16.27;59.25;98148.56;5023298;28;20041;-50
2022/10/05 08:45:42;;;;;;;9.40;6.47;;;13.60;99.90;;;16.34;59.32;98145.97;5024172;28;20046;-50
2022/10/05 08:48:41;;;;;;;7.93;5.93;;;13.70;99.90;;;16.39;59.43;98140.88;5023817;28;20232;-51
2022/10/05 08:51:28;;;;;;;7.82;5.75;;;13.80;99.90;;;16.47;59.52;98145.31;5024390;28;20053;-49
2022/10/05 08:54:26;;;;;;;8.55;5.57;;;13.80;99.90;;;16.54;59.31;98147.06;5022849;28;20042;-53
2022/10/05 08:57:21;;;;;;;6.85;5.70;;;13.90;99.90;;;16.62;59.29;98148.00;5023508;28;20046;-52
2022/10/05 09:00:22;;;;;;;8.85;6.30;;;14.00;99.90;;;16.69;59.35;98149.75;5024062;28;20336;-49
2022/10/05 09:03:14;;;;;;;7.80;5.45;;;14.10;99.90;;;16.77;58.91;98145.25;5022927;28;20052;-52
2022/10/05 09:06:10;;;;;;;7.22;6.00;;;14.10;99.90;;;16.84;59.14;98140.84;5024522;28;20046;-49
2022/10/05 09:09:13;;;;;;;7.95;5.95;;;14.20;99.90;;;16.90;58.93;98143.63;5023372;28;20045;-53
2022/10/05 09:12:05;;;;;;;9.00;6.60;;;14.30;99.90;;;16.96;58.61;98142.00;5023786;28;20042;-47
2022/10/05 09:15:08;;;;;;;11.25;6.30;;;14.30;99.90;;;17.03;58.58;98139.41;5023912;28;20355;-49
2022/10/05 09:18:20;;;;;;;8.77;6.15;;;14.30;99.90;;;17.10;58.30;98137.63;5022127;28;20053;-51
2022/10/05 09:21:05;;;;;;;10.23;6.93;;;14.40;99.90;;;17.14;58.21;98138.91;5023535;28;20049;-50
2022/10/05 09:23:42;;;;;;;10.90;6.07;;;14.50;99.90;;;17.19;58.46;98136.44;5022580;28;20053;-48
2022/10/05 09:26:44;;;;;;;9.98;6.00;;;14.50;99.90;;;17.26;58.10;98136.53;5022225;28;20055;-53
2022/10/05 09:30:02;;;;;;;8.48;6.32;;;14.60;99.90;;;17.34;58.38;98133.72;5022109;28;20054;-50
2022/10/05 09:32:38;;;;;;;6.57;5.32;;;14.70;99.90;;;17.41;58.18;98131.94;5023596;28;20260;-54
2022/10/05 09:35:36;;;;;;;9.90;6.40;;;14.80;99.90;;;17.47;58.35;98120.38;5022167;28;20268;-51
2022/10/05 09:38:19;;;;;;;9.52;5.78;;;14.80;99.90;;;17.57;58.22;98124.59;5022252;28;20180;-52
2022/10/05 09:41:29;;;;;;;10.45;6.10;;;14.90;99.90;;;17.64;57.96;98125.47;5023273;28;20045;-51
2022/10/05 09:44:11;;;;;;;6.72;5.07;;;15.00;99.90;;;17.73;57.65;98128.88;5025265;28;20045;-50
2022/10/05 09:47:01;;;;;;;7.53;5.35;;;15.10;99.90;;;17.78;57.71;98127.25;5022659;28;20056;-50
2022/10/05 09:50:03;;;;;;;8.27;6.00;;;15.10;99.90;;;17.86;57.87;98116.38;5022961;28;20059;-50
2022/10/05 09:53:04;;;;;;;7.63;6.28;;;15.20;99.90;;;17.97;57.83;98123.09;5022162;28;20054;-52
2022/10/05 09:56:12;;;;;;;7.38;5.85;;;15.30;99.90;;;18.05;57.93;98114.84;5022268;28;20058;-51
2022/10/05 09:59:16;;;;;;;6.78;5.38;;;15.50;99.90;;;18.13;57.73;98107.66;5022746;28;20048;-51
2022/10/05 10:02:18;;;;;;;;;;;15.50;99.90;;;18.34;57.44;98101.31;5023581;28;20056;-49
2022/10/05 10:05:07;;;;;;;6.07;4.72;;;15.60;99.90;;;18.35;57.52;98100.28;5021899;28;20226;-52
2022/10/05 10:08:03;;;;;;;7.78;5.03;;;15.70;99.90;;;18.41;57.39;98094.09;5021571;28;20048;-48
2022/10/05 10:11:10;;;;;;;9.18;5.35;;;15.80;99.90;;;18.47;57.45;98099.50;5023187;28;20050;-48
2022/10/05 10:14:13;;;;;;;8.27;4.97;;;15.80;99.90;;;18.52;57.38;98087.31;5022741;28;20072;-50
2022/10/05 10:16:59;;;;;;;8.00;5.55;;;15.90;99.90;;;18.59;57.29;98085.44;5021202;28;20080;-51
2022/10/05 10:19:55;;;;;;;9.15;5.95;;;16.00;99.90;;;18.64;57.49;98077.59;5022636;28;20108;-53
2022/10/05 10:22:29;;;;;;;7.93;5.32;;;16.00;99.90;;;18.72;57.12;98079.28;5021259;28;20057;-48
2022/10/05 10:25:41;;;;;;;7.55;5.13;;;16.10;99.90;;;18.77;57.15;98077.63;5022475;28;20042;-50
2022/10/05 10:32:14;;;;;;;7.07;4.53;;;16.30;99.90;;;18.95;57.23;98076.25;5023136;28;20057;-51
2022/10/05 10:35:25;;;;;;;10.63;4.90;;;16.40;99.90;;;19.05;57.14;98072.13;5022207;28;20046;-48
2022/10/05 10:38:32;;;;;;;7.43;4.95;;;16.50;99.90;;;19.12;57.07;98072.13;5022070;28;20240;-54
2022/10/05 10:41:40;;;;;;;6.63;4.25;;;16.50;99.90;;;19.21;56.97;98080.84;5021351;28;20056;-52
2022/10/05 10:44:38;;;;;;;6.50;4.43;;;16.60;99.90;;;19.23;56.78;98058.03;5022673;28;20056;-49
2022/10/05 10:47:27;;;;;;;7.82;4.78;;;16.70;99.90;;;19.30;56.59;98068.00;5021953;28;20061;-50
2022/10/05 10:50:39;;;;;;;6.00;4.95;;;16.70;99.90;;;19.36;56.59;98064.47;5023137;28;20052;-53
2022/10/05 10:53:54;;;;;;;7.50;4.20;;;16.80;99.90;;;19.44;56.60;98062.41;5029681;28;20064;-51
2022/10/05 10:56:59;;;;;;;9.43;5.28;;;16.80;99.90;;;19.54;56.35;98059.28;5025891;28;20479;-50
2022/10/05 10:59:30;;;;;;;6.93;4.75;;;17.00;99.90;;;19.59;56.33;98059.47;5025198;28;20056;-53
2022/10/05 11:02:28;;;;;;;7.93;4.20;;;17.00;99.90;;;19.63;56.62;98062.59;5026253;28;20058;-52
2022/10/05 11:05:50;;;;;;;6.78;4.50;;;17.10;99.90;;;19.74;56.22;98055.78;5024934;28;20370;-54
2022/10/05 11:08:49;;;;;;;4.53;3.63;;;17.20;99.90;;;19.83;55.84;98049.09;5025902;28;20255;-50
2022/10/05 11:11:35;;;;;;;5.57;3.70;;;17.30;99.90;;;19.89;55.92;98045.56;5026265;28;20052;-50
2022/10/05 11:14:12;;;;;;;6.50;3.78;;;17.30;99.90;;;19.95;55.34;98036.59;5026029;28;20045;-51
2022/10/05 11:17:28;;;;;;;4.35;3.40;;;17.40;99.90;;;20.03;55.56;98039.06;5025349;28;20053;-52
2022/10/05 11:20:23;;;;;;;5.40;3.28;;;17.50;99.60;;;20.11;55.13;98032.59;5024525;28;20079;-49
2022/10/05 11:23:10;;;;;;;11.00;5.60;;;17.60;98.20;;;20.17;55.24;98042.56;5025971;28;20054;-50
2022/10/05 11:25:46;;;;;;;6.22;4.53;;;17.60;99.90;;;20.25;55.25;98034.22;5024400;28;20050;-53
2022/10/05 11:28:51;;;;;;;5.38;4.50;;;17.70;99.90;;;20.32;55.14;98027.97;5025252;28;20045;-53
2022/10/05 11:31:46;;;;;;;6.93;4.10;;;17.80;99.90;;;20.41;54.79;98032.91;5025523;28;20060;-50
2022/10/05 11:34:57;;;;;;;3.90;2.92;;;17.90;99.90;;;20.49;54.93;98021.03;5024280;28;20053;-52
2022/10/05 11:37:48;;;;;;;4.10;3.67;;;17.90;98.40;;;20.57;54.48;98019.91;5025094;28;20050;-52
2022/10/05 11:40:51;;;;;;;6.00;3.90;;;18.00;97.90;;;20.64;54.57;98015.34;5024232;28;20233;-52
2022/10/05 11:44:23;;;;;;;6.87;4.17;;;18.10;96.50;;;20.75;54.53;98016.53;5025435;28;20288;-53
2022/10/05 11:47:23;;;;;;;8.43;3.20;;;18.20;95.40;;;20.86;54.65;98021.25;5030490;28;20081;-51
2022/10/05 11:50:25;;;;;;;5.93;3.28;;;18.30;96.10;;;20.96;54.37;98018.06;5024157;28;20052;-51
2022/10/05 11:53:28;;;;;;;10.40;3.65;;;18.40;97.30;;;21.12;53.70;98000.47;5024285;28;20042;-54
2022/10/05 11:56:17;;;;;;;7.70;3.58;;;18.60;94.10;;;21.21;53.87;98002.69;5023354;28;20054;-50
2022/10/05 11:59:25;;;;;;;4.55;3.00;;;18.70;94.70;;;21.32;54.09;98011.13;5025135;28;20367;-53
2022/10/05 12:02:46;;;;;;;7.22;3.28;;;18.90;93.70;;;21.44;53.77;98009.38;5022940;28;20237;-50
2022/10/05 12:05:34;;;;;;;4.43;3.25;;;18.90;93.80;;;21.56;53.20;98002.19;4988954;28;20059;-48
2022/10/05 12:08:32;;;;;;;8.82;3.78;;;19.00;94.00;;;21.68;52.88;97996.88;5024426;28;20382;-53
2022/10/05 12:11:46;;;;;;;5.75;3.30;;;19.20;91.80;;;21.65;52.13;97996.47;5024793;28;20045;-52